Terminal Aerodrome Forecast
Issued by NWS

Home | Current Version | Previous Version | Text Only | Print | Product List | Glossary On
Versions: 1 2 3 4 5 6 7 8 9 10 11 12 13 14 15
031
FTUS44 KJAN 232357
TAFHKS
TAF
KHKS 232357Z 2400/2424 21005KT P6SM SCT020
     FM240900 VRB03KT P6SM BKN015
     FM241500 23005KT P6SM SCT025
     FM242000 20005KT P6SM VCTS SCT035CB
      TEMPO 2421/2424 3SM TSRA BKN025CB=

USA.gov is the U.S. government's official web portal to all federal, state and local government web resources and services.